createdAt,value
2017-08-29T00:00:45.339Z,90.50
2017-08-29T00:03:13.306Z,90.50
2017-08-29T00:05:41.050Z,90.70
2017-08-29T00:08:08.739Z,91.00
2017-08-29T00:10:37.182Z,90.30
2017-08-29T00:13:04.851Z,90.30
2017-08-29T00:15:32.590Z,90.20
2017-08-29T00:18:00.255Z,90.10
2017-08-29T00:20:27.935Z,90.20
2017-08-29T00:22:55.634Z,90.60
2017-08-29T00:25:23.284Z,90.90
2017-08-29T00:27:51.147Z,91.20
2017-08-29T00:30:18.838Z,91.10
2017-08-29T00:32:46.519Z,90.70
2017-08-29T00:35:14.293Z,90.80
2017-08-29T00:37:41.970Z,90.80
2017-08-29T00:40:09.638Z,90.40
2017-08-29T00:42:37.354Z,90.00
2017-08-29T00:45:05.022Z,89.30
2017-08-29T00:47:32.686Z,89.70
2017-08-29T00:50:00.383Z,90.20
2017-08-29T00:52:28.056Z,90.40
2017-08-29T00:54:55.765Z,90.20
2017-08-29T00:57:23.519Z,90.10
2017-08-29T00:59:51.240Z,89.90
2017-08-29T01:02:18.926Z,90.00
2017-08-29T01:04:46.655Z,89.90
2017-08-29T01:07:14.322Z,89.80
2017-08-29T01:09:42.593Z,89.60
2017-08-29T01:12:10.834Z,90.00
2017-08-29T01:14:38.902Z,90.10
2017-08-29T01:17:06.991Z,90.10
2017-08-29T01:19:35.544Z,90.00
2017-08-29T01:22:03.680Z,90.00
2017-08-29T01:24:31.837Z,90.10
2017-08-29T01:27:00.063Z,90.10
2017-08-29T01:29:28.083Z,90.50
2017-08-29T01:31:56.212Z,90.90
2017-08-29T01:34:25.270Z,91.30
2017-08-29T01:36:52.959Z,91.30
2017-08-29T01:39:20.654Z,91.40
2017-08-29T01:41:48.434Z,91.00
2017-08-29T01:44:16.140Z,90.80
2017-08-29T01:46:43.870Z,91.40
2017-08-29T01:49:11.603Z,91.50
2017-08-29T01:51:39.306Z,91.70
2017-08-29T01:54:07.001Z,91.90
2017-08-29T01:56:34.734Z,91.90
2017-08-29T01:59:02.426Z,91.80
2017-08-29T02:01:30.118Z,91.40
2017-08-29T02:03:57.853Z,91.90
2017-08-29T02:06:25.547Z,91.70
2017-08-29T02:08:53.243Z,91.60
2017-08-29T02:11:21.331Z,92.00
2017-08-29T02:13:49.013Z,92.20
2017-08-29T02:16:16.675Z,92.70
2017-08-29T02:18:44.375Z,93.20
2017-08-29T02:21:12.064Z,93.50
2017-08-29T02:23:39.702Z,93.60
2017-08-29T02:26:07.404Z,93.60
2017-08-29T02:28:35.253Z,93.60
2017-08-29T02:31:02.903Z,93.60
2017-08-29T02:33:30.587Z,93.60
2017-08-29T02:35:58.272Z,93.30
2017-08-29T02:38:25.918Z,93.20
2017-08-29T02:40:53.762Z,93.00
2017-08-29T02:43:21.411Z,93.00
2017-08-29T02:45:49.078Z,92.90
2017-08-29T02:48:16.765Z,92.80
2017-08-29T02:50:44.416Z,92.80
2017-08-29T02:53:12.069Z,92.70
2017-08-29T02:55:39.750Z,92.60
2017-08-29T02:58:07.448Z,92.60
2017-08-29T03:00:35.098Z,92.70
2017-08-29T03:03:02.786Z,92.60
2017-08-29T03:05:30.450Z,92.60
2017-08-29T03:07:58.097Z,92.50
2017-08-29T03:10:25.782Z,92.70
2017-08-29T03:12:53.708Z,92.90
2017-08-29T03:15:21.362Z,93.20
2017-08-29T03:17:49.042Z,92.90
2017-08-29T03:20:16.701Z,92.80
2017-08-29T03:22:44.362Z,92.80
2017-08-29T03:25:12.050Z,92.90
2017-08-29T03:27:39.694Z,93.00
2017-08-29T03:30:07.350Z,93.10
2017-08-29T03:32:35.038Z,93.10
2017-08-29T03:35:02.710Z,92.70
2017-08-29T03:37:30.358Z,92.60
2017-08-29T03:39:58.042Z,92.60
2017-08-29T03:42:25.693Z,92.50
2017-08-29T03:44:53.349Z,92.50
2017-08-29T03:47:21.026Z,92.70
2017-08-29T03:49:48.718Z,92.70
2017-08-29T03:52:16.383Z,92.80
2017-08-29T03:54:44.079Z,92.60
2017-08-29T03:57:11.743Z,92.50
2017-08-29T03:59:39.405Z,92.30
2017-08-29T04:02:07.083Z,92.60
2017-08-29T04:04:34.767Z,92.20
2017-08-29T04:07:02.424Z,92.50
2017-08-29T04:09:30.137Z,92.30
2017-08-29T04:11:57.790Z,92.00
2017-08-29T04:14:25.576Z,91.90
2017-08-29T04:16:53.271Z,92.20
2017-08-29T04:19:20.921Z,92.20
2017-08-29T04:21:48.580Z,92.20
2017-08-29T04:24:16.296Z,92.30
2017-08-29T04:26:43.961Z,92.10
2017-08-29T04:29:11.618Z,91.90
2017-08-29T04:31:39.308Z,92.00
2017-08-29T04:34:06.969Z,92.30
2017-08-29T04:36:34.636Z,92.50
2017-08-29T04:39:02.326Z,92.60
2017-08-29T04:41:30.059Z,92.70
2017-08-29T04:43:57.727Z,92.70
2017-08-29T04:46:25.437Z,92.60
2017-08-29T04:48:53.155Z,92.70
2017-08-29T04:51:21.025Z,92.90
2017-08-29T04:53:48.818Z,93.00
2017-08-29T04:56:16.649Z,93.10
2017-08-29T04:58:44.353Z,93.20
2017-08-29T05:01:12.803Z,93.30
2017-08-29T05:03:40.915Z,93.30
2017-08-29T05:06:08.881Z,93.40
2017-08-29T05:08:36.686Z,93.50
2017-08-29T05:11:05.316Z,93.40
2017-08-29T05:13:34.763Z,93.20
2017-08-29T05:16:04.114Z,93.20
2017-08-29T05:18:34.510Z,93.10
2017-08-29T05:21:04.791Z,92.80
2017-08-29T05:23:34.498Z,92.70
2017-08-29T05:26:04.403Z,92.50
2017-08-29T05:28:35.175Z,92.50
2017-08-29T05:31:04.650Z,92.40
2017-08-29T05:33:34.938Z,92.30
2017-08-29T05:36:05.147Z,92.20
2017-08-29T05:38:35.293Z,92.10
2017-08-29T05:41:05.711Z,91.90
2017-08-29T05:43:35.940Z,90.80
2017-08-29T05:46:05.791Z,90.00
2017-08-29T05:48:33.443Z,88.70
2017-08-29T05:51:01.122Z,88.60
2017-08-29T05:53:28.765Z,89.10
2017-08-29T05:55:56.423Z,90.20
2017-08-29T05:58:25.433Z,90.30
2017-08-29T06:00:53.865Z,90.40
2017-08-29T06:03:21.627Z,90.30
2017-08-29T06:05:49.807Z,90.10
2017-08-29T06:08:17.472Z,90.00
2017-08-29T06:10:45.183Z,90.00
2017-08-29T06:13:12.886Z,89.50
2017-08-29T06:15:40.603Z,89.50
2017-08-29T06:18:08.425Z,88.90
2017-08-29T06:20:36.138Z,89.10
2017-08-29T06:23:03.780Z,88.30
2017-08-29T06:25:31.426Z,87.30
2017-08-29T06:27:59.370Z,84.30
2017-08-29T06:30:27.046Z,80.10
2017-08-29T06:32:54.690Z,74.70
2017-08-29T06:35:22.394Z,72.80
2017-08-29T06:37:50.062Z,69.70
2017-08-29T06:40:17.722Z,67.40
2017-08-29T06:42:45.403Z,64.30
2017-08-29T06:45:13.046Z,60.70
2017-08-29T06:47:40.726Z,58.30
2017-08-29T06:50:08.837Z,55.70
2017-08-29T06:52:36.488Z,54.20
2017-08-29T06:55:04.130Z,53.60
2017-08-29T06:57:31.838Z,53.70
2017-08-29T06:59:59.512Z,50.90
2017-08-29T07:02:27.444Z,50.40
2017-08-29T07:04:55.320Z,50.70
2017-08-29T07:07:23.001Z,51.10
2017-08-29T07:09:50.638Z,49.30
2017-08-29T07:12:18.351Z,48.50
2017-08-29T07:14:46.016Z,49.00
2017-08-29T07:17:13.658Z,48.40
2017-08-29T07:19:41.359Z,47.70
2017-08-29T07:22:09.008Z,46.90
2017-08-29T07:24:36.650Z,47.10
2017-08-29T07:27:04.325Z,46.50
2017-08-29T07:29:31.970Z,46.20
2017-08-29T07:31:59.614Z,46.70
2017-08-29T07:34:27.294Z,45.20
2017-08-29T07:36:54.943Z,46.00
2017-08-29T07:39:22.586Z,45.30
2017-08-29T07:41:50.448Z,43.20
2017-08-29T07:44:18.115Z,43.80
2017-08-29T07:46:45.779Z,42.90
2017-08-29T07:49:14.454Z,45.00
2017-08-29T07:51:42.168Z,45.00
2017-08-29T07:54:09.825Z,45.90
2017-08-29T07:56:37.515Z,44.10
2017-08-29T07:59:05.158Z,43.70
2017-08-29T08:01:32.803Z,44.40
2017-08-29T08:04:00.502Z,43.60
2017-08-29T08:06:28.168Z,44.30
2017-08-29T08:08:55.806Z,44.70
2017-08-29T08:11:23.526Z,43.00
2017-08-29T08:13:51.206Z,43.10
2017-08-29T08:16:18.922Z,42.80
2017-08-29T08:18:46.647Z,40.90
2017-08-29T08:21:14.309Z,41.10
2017-08-29T08:23:41.954Z,42.00
2017-08-29T08:26:09.635Z,42.70
2017-08-29T08:28:37.291Z,42.00
2017-08-29T08:31:04.939Z,42.10
2017-08-29T08:33:32.619Z,42.70
2017-08-29T08:36:00.281Z,41.80
2017-08-29T08:38:27.967Z,41.90
2017-08-29T08:40:55.718Z,41.70
2017-08-29T08:43:23.367Z,42.40
2017-08-29T08:45:51.028Z,40.90
2017-08-29T08:48:18.708Z,41.40
2017-08-29T08:50:46.355Z,41.90
2017-08-29T08:53:13.997Z,42.40
2017-08-29T08:55:41.670Z,43.00
2017-08-29T08:58:09.325Z,43.10
2017-08-29T09:00:36.967Z,42.90
2017-08-29T09:03:04.662Z,42.40
2017-08-29T09:05:32.311Z,41.70
2017-08-29T09:07:59.952Z,42.40
2017-08-29T09:10:27.642Z,42.10
2017-08-29T09:12:55.282Z,40.20
2017-08-29T09:15:22.938Z,41.40
2017-08-29T09:17:50.619Z,42.20
2017-08-29T09:20:18.293Z,43.30
2017-08-29T09:22:45.929Z,43.10
2017-08-29T09:25:13.613Z,43.20
2017-08-29T09:27:41.251Z,43.70
2017-08-29T09:30:08.904Z,43.40
2017-08-29T09:32:37.050Z,44.00
2017-08-29T09:35:04.694Z,44.90
2017-08-29T09:37:32.371Z,43.80
2017-08-29T09:40:00.048Z,44.90
2017-08-29T09:42:27.697Z,43.70
2017-08-29T09:44:55.359Z,42.00
2017-08-29T09:47:23.053Z,42.10
2017-08-29T09:49:50.711Z,41.10
2017-08-29T09:52:18.373Z,40.70
2017-08-29T09:54:46.072Z,41.00
2017-08-29T09:57:13.730Z,41.10
2017-08-29T09:59:41.389Z,40.60
2017-08-29T10:02:09.067Z,40.80
2017-08-29T10:04:36.727Z,41.10
2017-08-29T10:07:07.538Z,40.50
2017-08-29T10:09:35.425Z,41.10
2017-08-29T10:12:03.090Z,40.90
2017-08-29T10:14:30.755Z,41.80
2017-08-29T10:16:58.430Z,40.60
2017-08-29T10:19:26.080Z,38.70
2017-08-29T10:21:53.732Z,39.00
2017-08-29T10:24:21.588Z,39.30
2017-08-29T10:26:49.230Z,38.80
2017-08-29T10:29:16.909Z,38.90
2017-08-29T10:31:44.571Z,38.20
2017-08-29T10:34:12.223Z,39.00
2017-08-29T10:36:39.918Z,38.00
2017-08-29T10:39:07.574Z,38.50
2017-08-29T10:41:35.320Z,38.40
2017-08-29T10:44:03.137Z,37.80
2017-08-29T10:46:30.782Z,38.20
2017-08-29T10:48:58.919Z,38.20
2017-08-29T10:51:26.600Z,37.60
2017-08-29T10:53:54.239Z,37.70
2017-08-29T10:56:21.910Z,38.30
2017-08-29T10:58:49.571Z,38.40
2017-08-29T11:01:17.354Z,37.50
2017-08-29T11:03:44.998Z,38.40
2017-08-29T11:06:12.643Z,38.10
2017-08-29T11:08:40.321Z,37.90
2017-08-29T11:11:07.966Z,37.60
2017-08-29T11:13:35.746Z,36.90
2017-08-29T11:16:03.416Z,36.80
2017-08-29T11:18:31.070Z,38.00
2017-08-29T11:20:58.753Z,37.90
2017-08-29T11:23:26.450Z,37.50
2017-08-29T11:25:54.178Z,38.30
2017-08-29T11:28:21.862Z,37.40
2017-08-29T11:30:49.532Z,37.40
2017-08-29T11:33:17.206Z,37.80
2017-08-29T11:35:44.863Z,37.80
2017-08-29T11:38:12.783Z,37.30
2017-08-29T11:40:40.439Z,38.80
2017-08-29T11:43:08.101Z,38.00
2017-08-29T11:45:35.773Z,37.00
2017-08-29T11:48:03.426Z,36.60
2017-08-29T11:50:31.282Z,37.30
2017-08-29T11:52:58.936Z,38.10
2017-08-29T11:55:26.621Z,38.90
2017-08-29T11:57:54.309Z,38.50
2017-08-29T12:00:21.990Z,37.70
2017-08-29T12:02:50.022Z,39.30
2017-08-29T12:05:17.690Z,37.90
2017-08-29T12:07:45.387Z,38.90
2017-08-29T12:10:13.067Z,37.50
2017-08-29T12:12:40.761Z,38.00
2017-08-29T12:15:08.543Z,37.10
2017-08-29T12:17:36.242Z,36.70
2017-08-29T12:20:03.941Z,36.90
2017-08-29T12:22:31.606Z,37.00
2017-08-29T12:24:59.255Z,36.80
2017-08-29T12:27:27.166Z,37.00
2017-08-29T12:29:54.819Z,37.00
2017-08-29T12:32:22.467Z,36.20
2017-08-29T12:34:50.211Z,36.00
2017-08-29T12:37:17.911Z,36.10
2017-08-29T12:39:45.649Z,36.80
2017-08-29T12:42:13.300Z,36.60
2017-08-29T12:44:40.971Z,36.80
2017-08-29T12:47:08.645Z,36.80
2017-08-29T12:49:36.371Z,37.20
2017-08-29T12:52:04.151Z,38.30
2017-08-29T12:54:31.801Z,37.00
2017-08-29T12:56:59.449Z,37.80
2017-08-29T12:59:27.114Z,37.90
2017-08-29T13:01:54.758Z,38.60
2017-08-29T13:04:22.482Z,37.10
2017-08-29T13:06:50.121Z,38.20
2017-08-29T13:09:17.769Z,37.50
2017-08-29T13:11:45.465Z,37.50
2017-08-29T13:14:13.127Z,37.80
2017-08-29T13:16:40.856Z,37.70
2017-08-29T13:19:08.502Z,37.20
2017-08-29T13:21:36.161Z,37.00
2017-08-29T13:24:03.828Z,37.60
2017-08-29T13:26:31.465Z,37.20
2017-08-29T13:28:59.380Z,36.50
2017-08-29T13:31:27.031Z,36.90
2017-08-29T13:33:54.673Z,37.90
2017-08-29T13:36:22.339Z,38.30
2017-08-29T13:38:49.982Z,37.50
2017-08-29T13:41:17.686Z,38.90
2017-08-29T13:43:45.391Z,36.60
2017-08-29T13:46:13.044Z,37.20
2017-08-29T13:48:40.714Z,37.60
2017-08-29T13:51:09.125Z,37.50
2017-08-29T13:53:37.245Z,37.50
2017-08-29T13:56:04.929Z,38.10
2017-08-29T13:58:32.590Z,37.80
2017-08-29T14:01:00.270Z,39.10
2017-08-29T14:03:27.943Z,39.30
2017-08-29T14:05:55.886Z,39.00
2017-08-29T14:08:23.557Z,38.10
2017-08-29T14:10:51.207Z,38.00
2017-08-29T14:13:18.879Z,38.90
2017-08-29T14:15:46.530Z,39.10
2017-08-29T14:18:14.577Z,40.00
2017-08-29T14:20:42.231Z,39.70
2017-08-29T14:23:09.876Z,41.30
2017-08-29T14:25:37.547Z,41.20
2017-08-29T14:28:05.186Z,40.30
2017-08-29T14:30:32.892Z,39.10
2017-08-29T14:33:00.537Z,40.60
2017-08-29T14:35:28.192Z,40.30
2017-08-29T14:37:55.858Z,40.20
2017-08-29T14:40:23.494Z,41.00
2017-08-29T14:42:51.447Z,40.90
2017-08-29T14:45:19.089Z,41.00
2017-08-29T14:47:58.872Z,40.90
2017-08-29T14:50:26.517Z,41.40
2017-08-29T14:52:54.296Z,41.00
2017-08-29T14:55:22.024Z,41.10
2017-08-29T14:57:49.666Z,40.70
2017-08-29T15:00:17.727Z,40.40
2017-08-29T15:02:45.370Z,40.80
2017-08-29T15:05:13.022Z,40.50
2017-08-29T15:07:40.684Z,41.00
2017-08-29T15:10:08.337Z,40.30
2017-08-29T15:12:36.020Z,40.80
2017-08-29T15:15:03.664Z,39.80
2017-08-29T15:17:31.306Z,40.60
2017-08-29T15:19:59.086Z,40.00
2017-08-29T15:22:26.733Z,40.70
2017-08-29T15:24:54.439Z,40.90
2017-08-29T15:27:22.107Z,40.50
2017-08-29T15:29:49.754Z,40.60
2017-08-29T15:32:17.448Z,40.60
2017-08-29T15:34:45.087Z,40.90
2017-08-29T15:37:13.100Z,40.40
2017-08-29T15:39:40.762Z,40.50
2017-08-29T15:42:08.402Z,39.90
2017-08-29T15:44:36.086Z,40.30
2017-08-29T15:47:03.727Z,40.40
2017-08-29T15:49:31.775Z,40.80
2017-08-29T15:51:59.415Z,40.10
2017-08-29T15:54:27.067Z,40.30
2017-08-29T15:56:54.759Z,40.70
2017-08-29T15:59:22.402Z,41.20
2017-08-29T16:01:50.102Z,41.10
2017-08-29T16:04:17.764Z,41.60
2017-08-29T16:06:45.467Z,41.40
2017-08-29T16:09:13.147Z,41.80
2017-08-29T16:11:40.802Z,41.80
2017-08-29T16:14:08.693Z,41.60
2017-08-29T16:16:36.457Z,42.30
2017-08-29T16:19:04.118Z,43.00
2017-08-29T16:21:31.782Z,42.60
2017-08-29T16:23:59.434Z,42.20
2017-08-29T16:26:27.371Z,43.70
2017-08-29T16:28:55.038Z,43.40
2017-08-29T16:31:22.697Z,43.50
2017-08-29T16:33:50.404Z,43.30
2017-08-29T16:36:18.042Z,43.40
2017-08-29T16:38:45.815Z,43.90
2017-08-29T16:41:13.473Z,44.30
2017-08-29T16:43:41.131Z,44.60
2017-08-29T16:46:08.797Z,45.30
2017-08-29T16:48:36.454Z,44.10
2017-08-29T16:51:04.327Z,44.60
2017-08-29T16:53:31.978Z,44.00
2017-08-29T16:55:59.640Z,44.30
2017-08-29T16:58:27.310Z,44.40
2017-08-29T17:00:54.964Z,44.90
2017-08-29T17:03:23.074Z,45.70
2017-08-29T17:05:50.728Z,46.10
2017-08-29T17:08:18.387Z,46.10
2017-08-29T17:10:46.055Z,46.70
2017-08-29T17:13:13.708Z,46.90
2017-08-29T17:15:41.514Z,47.30
2017-08-29T17:18:09.149Z,47.50
2017-08-29T17:20:41.262Z,47.30
2017-08-29T17:23:09.254Z,47.70
2017-08-29T17:25:37.225Z,47.80
2017-08-29T17:28:05.885Z,48.10
2017-08-29T17:30:33.564Z,48.30
2017-08-29T17:33:01.461Z,49.00
2017-08-29T17:35:29.190Z,49.40
2017-08-29T17:37:59.417Z,49.30
2017-08-29T17:40:28.210Z,49.80
2017-08-29T17:42:58.451Z,50.10
2017-08-29T17:45:29.063Z,50.10
2017-08-29T17:48:01.152Z,51.20
2017-08-29T17:50:29.170Z,51.10
2017-08-29T17:52:58.509Z,51.50
2017-08-29T17:55:26.163Z,51.90
2017-08-29T17:57:54.065Z,52.20
2017-08-29T18:00:21.743Z,52.90
2017-08-29T18:02:49.703Z,53.10
2017-08-29T18:05:17.420Z,52.90
2017-08-29T18:07:45.075Z,53.20
2017-08-29T18:10:13.087Z,53.40
2017-08-29T18:12:40.758Z,53.90
2017-08-29T18:15:08.851Z,53.90
2017-08-29T18:17:36.532Z,54.40
2017-08-29T18:20:04.625Z,54.50
2017-08-29T18:22:38.506Z,54.50
2017-08-29T18:25:07.118Z,54.70
2017-08-29T18:27:36.775Z,54.90
2017-08-29T18:30:08.394Z,55.40
2017-08-29T18:32:39.732Z,55.80
2017-08-29T18:35:10.426Z,56.00
2017-08-29T18:37:39.192Z,56.30
2017-08-29T18:40:09.748Z,56.50
2017-08-29T18:42:37.594Z,57.00
2017-08-29T18:45:05.618Z,57.10
2017-08-29T18:47:36.543Z,57.50
2017-08-29T18:50:04.546Z,57.80
2017-08-29T18:52:32.525Z,58.00
2017-08-29T18:55:00.550Z,58.40
2017-08-29T18:57:31.018Z,58.50
2017-08-29T19:00:02.592Z,58.60
2017-08-29T19:02:32.229Z,58.90
2017-08-29T19:05:03.749Z,59.20
2017-08-29T19:07:31.759Z,59.20
2017-08-29T19:10:01.985Z,59.60
2017-08-29T19:12:30.216Z,60.00
2017-08-29T19:14:58.016Z,59.90
2017-08-29T19:17:25.950Z,59.50
2017-08-29T19:19:54.456Z,60.10
2017-08-29T19:22:22.510Z,60.40
2017-08-29T19:24:50.200Z,60.40
2017-08-29T19:27:18.000Z,60.60
2017-08-29T19:29:46.002Z,61.20
2017-08-29T19:32:14.082Z,61.50
2017-08-29T19:34:42.189Z,61.80
2017-08-29T19:37:10.215Z,62.40
2017-08-29T19:39:38.054Z,62.90
2017-08-29T19:42:05.750Z,62.80
2017-08-29T19:44:33.742Z,63.40
2017-08-29T19:47:01.463Z,63.40
2017-08-29T19:49:29.161Z,63.70
2017-08-29T19:52:14.948Z,63.50
2017-08-29T19:54:43.707Z,63.20
2017-08-29T19:57:11.441Z,63.80
2017-08-29T19:59:39.110Z,64.40
2017-08-29T20:02:10.450Z,64.30
2017-08-29T20:04:40.636Z,64.80
2017-08-29T20:07:12.270Z,64.90
2017-08-29T20:09:41.519Z,65.50
2017-08-29T20:12:09.427Z,65.70
2017-08-29T20:14:37.135Z,65.90
2017-08-29T20:17:05.751Z,65.90
2017-08-29T20:19:33.899Z,66.30
2017-08-29T20:22:01.903Z,66.50
2017-08-29T20:24:30.115Z,66.20
2017-08-29T20:26:57.835Z,66.70
2017-08-29T20:29:25.602Z,66.70
2017-08-29T20:31:53.351Z,67.30
2017-08-29T20:34:21.930Z,67.90
2017-08-29T20:36:49.615Z,67.90
2017-08-29T20:39:17.400Z,66.80
2017-08-29T20:41:45.150Z,67.60
2017-08-29T20:44:13.014Z,67.80
2017-08-29T20:46:41.032Z,67.80
2017-08-29T20:49:08.747Z,67.80
2017-08-29T20:51:36.420Z,68.60
2017-08-29T20:54:05.016Z,68.90
2017-08-29T20:56:33.036Z,68.60
2017-08-29T20:59:01.017Z,68.40
2017-08-29T21:01:28.747Z,69.10
2017-08-29T21:03:56.439Z,69.10
2017-08-29T21:06:24.890Z,69.80
2017-08-29T21:08:52.562Z,69.80
2017-08-29T21:11:20.362Z,70.70
2017-08-29T21:13:48.022Z,70.70
2017-08-29T21:16:15.692Z,71.40
2017-08-29T21:18:43.393Z,71.50
2017-08-29T21:21:11.811Z,71.90
2017-08-29T21:23:41.828Z,72.50
2017-08-29T21:26:09.525Z,71.90
2017-08-29T21:28:37.183Z,71.90
2017-08-29T21:31:05.135Z,71.90
2017-08-29T21:33:33.019Z,72.10
2017-08-29T21:36:00.861Z,72.40
2017-08-29T21:38:29.144Z,72.70
2017-08-29T21:40:56.831Z,72.90
2017-08-29T21:43:24.527Z,73.20
2017-08-29T21:45:52.190Z,73.10
2017-08-29T21:48:20.228Z,73.90
2017-08-29T21:50:47.883Z,73.80
2017-08-29T21:53:15.533Z,73.80
2017-08-29T21:55:43.211Z,74.20
2017-08-29T21:58:10.865Z,74.40
2017-08-29T22:00:39.629Z,74.90
2017-08-29T22:03:07.286Z,75.90
2017-08-29T22:05:34.944Z,76.40
2017-08-29T22:08:02.621Z,76.90
2017-08-29T22:10:30.276Z,77.10
2017-08-29T22:12:58.045Z,77.10
2017-08-29T22:15:29.093Z,76.80
2017-08-29T22:18:00.197Z,77.10
2017-08-29T22:20:31.679Z,77.50
2017-08-29T22:23:02.948Z,77.00
2017-08-29T22:25:33.636Z,76.80
2017-08-29T22:28:07.674Z,77.00
2017-08-29T22:30:41.891Z,77.40
2017-08-29T22:33:23.215Z,77.90
2017-08-29T22:35:54.918Z,78.00
2017-08-29T22:38:25.312Z,77.80
2017-08-29T22:40:57.098Z,78.30
2017-08-29T22:43:31.886Z,78.30
2017-08-29T22:46:02.529Z,78.40
2017-08-29T22:48:31.886Z,78.80
2017-08-29T22:51:02.093Z,79.10
2017-08-29T22:53:32.219Z,79.60
2017-08-29T22:56:04.871Z,79.80
2017-08-29T22:58:35.552Z,80.40
2017-08-29T23:01:06.749Z,80.80
2017-08-29T23:03:37.586Z,81.10
2017-08-29T23:06:08.415Z,81.80
2017-08-29T23:08:42.870Z,82.00
2017-08-29T23:11:13.818Z,82.10
2017-08-29T23:13:42.339Z,82.30
2017-08-29T23:16:10.042Z,82.30
2017-08-29T23:18:37.706Z,82.00
2017-08-29T23:21:05.446Z,82.00
2017-08-29T23:23:33.102Z,82.00
2017-08-29T23:26:01.022Z,82.00
2017-08-29T23:28:28.666Z,82.20
2017-08-29T23:30:56.322Z,82.60
2017-08-29T23:33:24.022Z,82.90
2017-08-29T23:35:52.460Z,82.80
2017-08-29T23:38:20.298Z,82.70
2017-08-29T23:40:47.950Z,82.90
2017-08-29T23:43:16.033Z,82.90
2017-08-29T23:45:43.930Z,82.90
2017-08-29T23:48:11.587Z,82.90
2017-08-29T23:50:39.975Z,83.00
2017-08-29T23:53:07.638Z,83.10
2017-08-29T23:55:35.281Z,83.40
2017-08-29T23:58:02.979Z,83.50
